Powersville, Georgia
Current Conditions -  °F | °C
As of 3:53 AM on Wednesday 26 Nov 2014 (Local Time) from KMCN Reporting Station
Light Rain Light Rain  
Wind Chill:   Ceiling: 6500
Heat Index:   Visibility: 8mi
Dew Point:   Wind: 0mph
Humidity: 100%   Direction: NA
Pressure: 29.97"   Gusts: NA
Location:  32.6425°N, 83.775°W
Report Text: KMCN 260853Z AUTO 00000KT 8SM -RA FEW004 OVC065 08/08 A2997 RMK AO2 RAE28B48 SLP146 P0001 60014 T00780078 58006 TSNO
Loading
Personal Weather Stations






























Interactive Weather Map New forecast layout! Learn more

10-Day Weather Forecast

Advertisements
Track Severe Weather on mobile